Time;durP1;ratioP1;P1;durP2;ratioP2;P2;SDS_P1;SDS_P2;PMS_P1;PMS_P2;Temp;Humidity;BMP_temperature;BMP_pressure;BME280_temperature;BME280_humidity;BME280_pressure;Samples;Min_cycle;Max_cycle;Signal;HPM_P1;HPM_P2
2020/12/21 00:00:17;;;;;;;21.10;9.93;;;;;;;;;;4974925;28;20145;-79
2020/12/21 00:03:52;;;;;;;20.73;9.77;;;;;;;;;;4966730;28;20135;-78
2020/12/21 00:06:46;;;;;;;21.20;9.93;;;;;;;;;;4955878;28;20043;-79
2020/12/21 00:09:50;;;;;;;18.52;9.68;;;;;;;;;;4970900;28;20054;-82
2020/12/21 00:12:49;;;;;;;18.30;9.85;;;;;;;;;;4944278;28;20138;-80
2020/12/21 00:15:42;;;;;;;19.35;9.48;;;;;;;;;;4961088;28;20159;-82
2020/12/21 00:18:47;;;;;;;18.52;9.30;;;;;;;;;;4973736;28;20101;-78
2020/12/21 00:24:55;;;;;;;20.88;10.15;;;;;;;;;;4972626;28;20054;-82
2020/12/21 00:28:09;;;;;;;17.65;9.52;;;;;;;;;;4987202;23;20061;-80
2020/12/21 00:31:07;;;;;;;20.45;9.65;;;;;;;;;;4980384;28;20102;-82
2020/12/21 00:33:54;;;;;;;21.48;9.57;;;;;;;;;;4961904;28;20034;-81
2020/12/21 00:36:35;;;;;;;16.30;8.48;;;;;;;;;;4976514;28;20042;-80
2020/12/21 00:39:10;;;;;;;18.90;9.35;;;;;;;;;;4975757;28;20466;-79
2020/12/21 00:42:08;;;;;;;21.25;8.30;;;;;;;;;;4975963;28;20058;-80
2020/12/21 00:44:39;;;;;;;19.02;9.15;;;;;;;;;;4976136;28;20105;-82
2020/12/21 00:47:14;;;;;;;18.42;9.10;;;;;;;;;;4959140;28;20072;-82
2020/12/21 00:49:56;;;;;;;16.77;9.15;;;;;;;;;;4959071;28;20043;-77
2020/12/21 00:52:48;;;;;;;18.33;8.70;;;;;;;;;;4974611;28;20054;-79
2020/12/21 00:55:45;;;;;;;16.45;8.77;;;;;;;;;;4960766;28;20049;-80
2020/12/21 00:58:30;;;;;;;18.85;9.20;;;;;;;;;;4960908;28;20058;-80
2020/12/21 01:01:30;;;;;;;;;;;;;;;;;;;;;
2020/12/21 01:04:16;;;;;;;22.83;10.75;;;;;;;;;;4976296;28;20058;-80
2020/12/21 01:07:09;;;;;;;19.75;10.23;;;;;;;;;;4977243;28;20142;-80
2020/12/21 01:09:47;;;;;;;23.42;10.38;;;;;;;;;;4952068;28;20066;-81
2020/12/21 01:12:33;;;;;;;21.35;11.00;;;;;;;;;;4976424;28;20487;-80
2020/12/21 01:15:19;;;;;;;18.67;10.27;;;;;;;;;;4961072;28;20043;-82
2020/12/21 01:18:01;;;;;;;21.05;9.90;;;;;;;;;;4959082;28;20101;-80
2020/12/21 01:20:41;;;;;;;18.50;10.52;;;;;;;;;;4959793;28;20046;-79
2020/12/21 01:23:22;;;;;;;18.83;10.05;;;;;;;;;;4972828;28;20150;-79
2020/12/21 01:26:05;;;;;;;23.75;10.20;;;;;;;;;;4975939;28;20073;-81
2020/12/21 01:28:56;;;;;;;25.25;11.13;;;;;;;;;;4972803;28;20181;-80
2020/12/21 01:31:51;;;;;;;18.92;10.55;;;;;;;;;;4974764;28;20046;-80
2020/12/21 01:34:27;;;;;;;21.83;10.07;;;;;;;;;;4990610;28;20412;-80
2020/12/21 01:37:25;;;;;;;19.90;10.02;;;;;;;;;;4972952;28;20051;-80
2020/12/21 01:40:32;;;;;;;22.52;10.68;;;;;;;;;;4963427;28;20055;-80
2020/12/21 01:43:12;;;;;;;20.60;10.43;;;;;;;;;;4986846;28;20142;-79
2020/12/21 01:46:08;;;;;;;21.58;10.38;;;;;;;;;;4973454;28;20395;-78
2020/12/21 01:49:00;;;;;;;19.50;10.52;;;;;;;;;;4971694;28;20043;-79
2020/12/21 01:51:54;;;;;;;18.45;9.70;;;;;;;;;;4973107;28;20054;-77
2020/12/21 01:54:57;;;;;;;17.77;9.68;;;;;;;;;;4971233;28;20047;-79
2020/12/21 01:57:46;;;;;;;19.27;10.27;;;;;;;;;;4970776;28;20450;-78
2020/12/21 02:00:12;;;;;;;19.05;10.60;;;;;;;;;;4971233;28;20407;-78
2020/12/21 02:03:14;;;;;;;19.70;9.82;;;;;;;;;;4969995;28;20030;-79
2020/12/21 02:06:00;;;;;;;12.00;7.10;;;;;;;;;;4971157;28;20046;-78
2020/12/21 02:08:46;;;;;;;7.60;4.50;;;;;;;;;;4968395;28;20058;-78
2020/12/21 02:11:25;;;;;;;15.15;7.85;;;;;;;;;;4971375;28;20111;-79
2020/12/21 02:13:57;;;;;;;21.52;9.45;;;;;;;;;;5002723;28;20525;-78
2020/12/21 02:16:36;;;;;;;15.80;9.18;;;;;;;;;;4987861;28;20073;-77
2020/12/21 02:19:18;;;;;;;15.93;8.73;;;;;;;;;;4971052;28;20069;-78
2020/12/21 02:22:23;;;;;;;15.70;8.52;;;;;;;;;;4949844;28;20050;-77
2020/12/21 02:25:34;;;;;;;15.35;8.20;;;;;;;;;;4959067;28;20057;-78
2020/12/21 02:29:00;;;;;;;14.23;7.95;;;;;;;;;;4969847;28;20089;-79
2020/12/21 02:31:31;;;;;;;12.45;6.63;;;;;;;;;;4955021;28;20051;-78
2020/12/21 02:34:04;;;;;;;15.63;7.50;;;;;;;;;;4987432;28;20059;-78
2020/12/21 02:37:04;;;;;;;14.25;7.20;;;;;;;;;;4970532;28;20058;-79
2020/12/21 02:39:43;;;;;;;14.70;5.93;;;;;;;;;;4987060;28;20047;-79
2020/12/21 02:42:17;;;;;;;8.75;4.30;;;;;;;;;;4970878;28;20053;-79
2020/12/21 02:44:58;;;;;;;8.82;4.03;;;;;;;;;;4970003;28;20431;-78
2020/12/21 02:48:11;;;;;;;8.57;3.80;;;;;;;;;;4970720;28;20039;-78
2020/12/21 02:50:49;;;;;;;;;;;;;;;;;;4969999;28;20479;-79
2020/12/21 02:53:25;;;;;;;8.27;4.40;;;;;;;;;;4969683;28;19922;-79
2020/12/21 02:56:12;;;;;;;9.50;4.00;;;;;;;;;;4971054;28;20525;-78
2020/12/21 02:58:42;;;;;;;9.48;4.47;;;;;;;;;;4972452;28;20071;-78
2020/12/21 03:01:20;;;;;;;7.00;4.07;;;;;;;;;;4970786;28;20043;-78
2020/12/21 03:04:04;;;;;;;7.05;3.40;;;;;;;;;;4970852;28;20051;-78
2020/12/21 03:06:30;;;;;;;7.90;3.67;;;;;;;;;;4969023;28;20066;-78
2020/12/21 03:08:56;;;;;;;6.93;3.38;;;;;;;;;;4970146;28;20502;-79
2020/12/21 03:11:23;;;;;;;7.85;3.47;;;;;;;;;;4971394;28;20043;-79
2020/12/21 03:13:49;;;;;;;6.80;3.58;;;;;;;;;;4953208;28;20039;-78
2020/12/21 03:16:15;;;;;;;6.03;3.28;;;;;;;;;;4952381;28;20113;-78
2020/12/21 03:18:40;;;;;;;7.43;3.22;;;;;;;;;;4970842;28;20040;-79
2020/12/21 03:21:07;;;;;;;6.80;2.92;;;;;;;;;;4971301;28;20054;-79
2020/12/21 03:23:32;;;;;;;9.18;3.33;;;;;;;;;;4971201;28;20046;-79
2020/12/21 03:25:58;;;;;;;6.53;3.50;;;;;;;;;;4969101;28;20526;-78
2020/12/21 03:28:24;;;;;;;6.43;3.60;;;;;;;;;;4953032;28;20043;-78
2020/12/21 03:30:50;;;;;;;6.95;3.75;;;;;;;;;;4969225;28;20054;-78
2020/12/21 03:33:17;;;;;;;6.82;3.95;;;;;;;;;;4969831;28;20451;-78
2020/12/21 03:35:43;;;;;;;9.07;4.18;;;;;;;;;;4984036;28;20092;-77
2020/12/21 03:38:09;;;;;;;7.93;4.10;;;;;;;;;;4970853;28;20047;-78
2020/12/21 03:40:35;;;;;;;7.68;4.40;;;;;;;;;;4972609;28;20117;-77
2020/12/21 03:43:02;;;;;;;7.47;4.35;;;;;;;;;;4974097;28;20050;-79
2020/12/21 03:45:28;;;;;;;8.55;4.40;;;;;;;;;;4972432;28;20043;-78
2020/12/21 03:47:56;;;;;;;9.52;4.20;;;;;;;;;;4955585;28;20046;-79
2020/12/21 03:50:22;;;;;;;7.65;4.32;;;;;;;;;;4972670;28;20076;-80
2020/12/21 03:52:49;;;;;;;8.00;4.25;;;;;;;;;;4972962;28;20058;-78
2020/12/21 03:55:15;;;;;;;6.80;4.45;;;;;;;;;;4972182;28;20050;-77
2020/12/21 03:57:42;;;;;;;9.07;4.13;;;;;;;;;;4973655;28;20047;-78
2020/12/21 04:00:08;;;;;;;10.50;5.10;;;;;;;;;;4975527;28;20047;-78
2020/12/21 04:02:36;;;;;;;9.77;4.05;;;;;;;;;;4974682;28;20035;-78
2020/12/21 04:05:04;;;;;;;10.32;4.53;;;;;;;;;;4973106;28;20209;-79
2020/12/21 04:07:30;;;;;;;9.77;4.68;;;;;;;;;;4975393;28;20046;-78
2020/12/21 04:09:56;;;;;;;9.48;5.35;;;;;;;;;;4975357;28;20046;-78
2020/12/21 04:12:22;;;;;;;9.52;5.00;;;;;;;;;;4974020;28;20061;-80
2020/12/21 04:14:48;;;;;;;10.30;4.75;;;;;;;;;;4975561;28;20047;-79
2020/12/21 04:17:14;;;;;;;8.70;4.78;;;;;;;;;;5007381;28;20047;-81
2020/12/21 04:19:44;;;;;;;9.00;4.97;;;;;;;;;;4975157;28;20066;-79
2020/12/21 04:22:10;;;;;;;12.32;5.25;;;;;;;;;;4974388;28;20375;-80
2020/12/21 04:24:36;;;;;;;9.25;5.20;;;;;;;;;;4975927;28;20057;-81
2020/12/21 04:27:03;;;;;;;8.95;5.18;;;;;;;;;;4975623;28;20078;-79
2020/12/21 04:29:30;;;;;;;11.15;5.55;;;;;;;;;;4975111;28;20043;-78
2020/12/21 04:31:56;;;;;;;8.77;4.63;;;;;;;;;;4958174;28;20502;-79
2020/12/21 04:34:25;;;;;;;9.88;5.15;;;;;;;;;;4956775;28;20502;-79
2020/12/21 04:36:53;;;;;;;15.05;5.18;;;;;;;;;;4975545;28;20135;-80
2020/12/21 04:39:24;;;;;;;10.60;5.22;;;;;;;;;;4958509;28;20113;-80
2020/12/21 04:41:52;;;;;;;10.07;5.20;;;;;;;;;;4973912;28;20042;-79
2020/12/21 04:44:19;;;;;;;12.40;5.00;;;;;;;;;;4974503;28;20141;-76
2020/12/21 04:46:46;;;;;;;9.77;5.10;;;;;;;;;;4973996;28;20049;-75
2020/12/21 04:49:14;;;;;;;12.57;5.70;;;;;;;;;;4974087;28;20066;-79
2020/12/21 04:51:41;;;;;;;14.15;6.70;;;;;;;;;;4974211;28;20047;-78
2020/12/21 04:54:09;;;;;;;10.18;5.75;;;;;;;;;;4973785;28;20050;-81
2020/12/21 04:56:35;;;;;;;11.85;5.75;;;;;;;;;;4974975;28;20054;-78
2020/12/21 04:59:02;;;;;;;12.68;5.55;;;;;;;;;;4974360;28;20094;-78
2020/12/21 05:01:28;;;;;;;9.77;5.32;;;;;;;;;;4975342;28;20047;-80
2020/12/21 05:03:57;;;;;;;14.98;5.60;;;;;;;;;;4975088;28;20046;-80
2020/12/21 05:06:24;;;;;;;11.50;5.70;;;;;;;;;;4990981;28;20047;-78
2020/12/21 05:09:05;;;;;;;12.63;5.65;;;;;;;;;;4976262;28;20049;-78
2020/12/21 05:11:38;;;;;;;9.93;4.88;;;;;;;;;;4975996;28;20031;-79
2020/12/21 05:14:07;;;;;;;11.38;5.40;;;;;;;;;;4988942;28;20097;-78
2020/12/21 05:16:35;;;;;;;11.13;5.95;;;;;;;;;;4972458;28;20047;-80
2020/12/21 05:19:02;;;;;;;13.05;6.25;;;;;;;;;;4990597;28;20057;-80
2020/12/21 05:21:31;;;;;;;11.45;6.03;;;;;;;;;;4991012;28;20043;-79
2020/12/21 05:23:58;;;;;;;12.27;6.55;;;;;;;;;;4990866;28;20049;-79
2020/12/21 05:26:26;;;;;;;11.02;5.65;;;;;;;;;;4974293;28;20340;-78
2020/12/21 05:28:52;;;;;;;12.02;5.97;;;;;;;;;;4987097;28;20499;-78
2020/12/21 05:31:19;;;;;;;13.18;5.85;;;;;;;;;;4957372;28;20055;-80
2020/12/21 05:33:45;;;;;;;12.65;5.97;;;;;;;;;;4939933;28;20042;-79
2020/12/21 05:36:18;;;;;;;10.98;5.68;;;;;;;;;;4972531;28;20126;-79
2020/12/21 05:38:56;;;;;;;10.40;6.10;;;;;;;;;;4973691;28;20057;-79
2020/12/21 05:41:23;;;;;;;12.88;6.13;;;;;;;;;;4973726;28;20150;-79
2020/12/21 05:43:51;;;;;;;12.80;5.75;;;;;;;;;;4973989;28;20205;-79
2020/12/21 05:46:23;;;;;;;17.08;6.28;;;;;;;;;;4973039;28;20487;-79
2020/12/21 05:48:59;;;;;;;12.88;6.05;;;;;;;;;;4972204;28;20039;-79
2020/12/21 05:51:28;;;;;;;12.35;6.10;;;;;;;;;;4965652;28;20051;-80
2020/12/21 05:53:55;;;;;;;13.55;5.88;;;;;;;;;;4969791;28;20126;-79
2020/12/21 05:56:22;;;;;;;11.77;5.95;;;;;;;;;;4969271;28;20043;-77
2020/12/21 05:58:49;;;;;;;11.23;5.75;;;;;;;;;;4965609;28;20047;-78
2020/12/21 06:01:18;;;;;;;11.43;5.75;;;;;;;;;;4968187;28;20043;-76
2020/12/21 06:04:03;;;;;;;11.25;5.80;;;;;;;;;;4972191;28;20466;-78
2020/12/21 06:06:33;;;;;;;17.48;5.78;;;;;;;;;;4972212;28;20077;-80
2020/12/21 06:09:01;;;;;;;11.88;5.50;;;;;;;;;;4969449;28;20079;-80
2020/12/21 06:11:30;;;;;;;11.85;5.50;;;;;;;;;;4970815;28;20050;-78
2020/12/21 06:13:58;;;;;;;9.98;4.78;;;;;;;;;;4969603;28;20538;-78
2020/12/21 06:16:25;;;;;;;12.05;4.75;;;;;;;;;;4969614;28;20065;-79
2020/12/21 06:19:10;;;;;;;10.68;4.13;;;;;;;;;;4970061;28;20074;-78
2020/12/21 06:21:37;;;;;;;9.80;4.10;;;;;;;;;;4953346;28;20065;-78
2020/12/21 06:24:14;;;;;;;10.88;4.03;;;;;;;;;;4968875;28;20404;-78
2020/12/21 06:26:41;;;;;;;7.75;3.40;;;;;;;;;;4970571;28;20035;-78
2020/12/21 06:29:13;;;;;;;8.38;3.33;;;;;;;;;;4994228;23;20077;-84
2020/12/21 06:31:44;;;;;;;9.75;3.42;;;;;;;;;;4978509;28;20042;-85
2020/12/21 06:34:18;;;;;;;7.70;3.38;;;;;;;;;;4995590;28;20079;-88
2020/12/21 06:36:49;;;;;;;5.18;3.05;;;;;;;;;;4992661;28;20104;-82
2020/12/21 06:39:23;;;;;;;9.27;3.08;;;;;;;;;;4996129;28;20042;-80
2020/12/21 06:42:13;;;;;;;6.70;3.22;;;;;;;;;;5014857;28;20046;-79
2020/12/21 06:44:42;;;;;;;6.07;3.00;;;;;;;;;;5014966;28;20060;-81
2020/12/21 06:47:10;;;;;;;7.22;3.47;;;;;;;;;;5014878;28;20042;-82
2020/12/21 06:49:39;;;;;;;5.60;2.97;;;;;;;;;;5015049;28;20660;-82
2020/12/21 06:52:05;;;;;;;8.25;3.60;;;;;;;;;;5014588;28;20058;-82
2020/12/21 06:54:32;;;;;;;7.22;3.15;;;;;;;;;;4996961;28;20072;-86
2020/12/21 06:56:59;;;;;;;6.70;3.20;;;;;;;;;;5015672;28;20521;-80
2020/12/21 06:59:26;;;;;;;4.78;2.83;;;;;;;;;;5014872;28;20629;-82
2020/12/21 07:01:59;;;;;;;7.45;2.75;;;;;;;;;;5015858;28;20044;-85
2020/12/21 07:04:37;;;;;;;7.68;3.53;;;;;;;;;;5003496;28;20048;-87
2020/12/21 07:07:06;;;;;;;7.35;3.05;;;;;;;;;;5012986;28;20073;-84
2020/12/21 07:09:38;;;;;;;8.38;3.50;;;;;;;;;;4998831;28;20042;-84
2020/12/21 07:12:07;;;;;;;7.55;3.78;;;;;;;;;;5001010;28;20733;-87
2020/12/21 07:14:36;;;;;;;6.85;3.42;;;;;;;;;;4996796;28;20103;-84
2020/12/21 07:17:09;;;;;;;7.97;3.92;;;;;;;;;;4989172;28;20042;-85
2020/12/21 07:19:39;;;;;;;9.57;3.97;;;;;;;;;;4986820;28;20054;-85
2020/12/21 07:22:06;;;;;;;9.02;4.47;;;;;;;;;;4986572;28;20042;-85
2020/12/21 07:24:36;;;;;;;8.00;4.40;;;;;;;;;;4986269;28;20068;-83
2020/12/21 07:27:08;;;;;;;9.52;4.47;;;;;;;;;;5002327;28;20447;-86
2020/12/21 07:29:47;;;;;;;10.63;4.43;;;;;;;;;;4966439;28;20046;-83
2020/12/21 07:40:33;;;;;;;9.02;4.95;;;;;;;;;;4825391;29;20061;-85
2020/12/21 07:43:50;;;;;;;12.98;5.30;;;;;;;;;;4871299;29;20056;-86
2020/12/21 07:46:22;;;;;;;11.02;4.70;;;;;;;;;;4901531;29;20048;-83
2020/12/21 07:48:57;;;;;;;9.23;4.53;;;;;;;;;;4955120;28;20050;-86
2020/12/21 07:51:30;;;;;;;12.18;4.93;;;;;;;;;;4979030;28;20068;-86
2020/12/21 07:53:59;;;;;;;12.20;5.38;;;;;;;;;;4954235;29;20122;-86
2020/12/21 07:56:38;;;;;;;10.68;4.97;;;;;;;;;;4945794;29;20053;-87
2020/12/21 07:59:24;;;;;;;11.20;5.22;;;;;;;;;;4931973;29;20059;-85
2020/12/21 08:01:56;;;;;;;12.00;4.95;;;;;;;;;;4944163;29;20666;-86
2020/12/21 08:04:24;;;;;;;10.50;5.00;;;;;;;;;;4944576;29;20047;-84
2020/12/21 08:07:10;;;;;;;10.07;4.53;;;;;;;;;;4944603;29;20178;-84
2020/12/21 08:09:37;;;;;;;12.02;5.07;;;;;;;;;;4942827;29;20364;-82
2020/12/21 08:12:29;;;;;;;9.82;4.15;;;;;;;;;;4998804;28;20147;-85
2020/12/21 08:14:59;;;;;;;9.90;3.78;;;;;;;;;;5001339;28;20145;-85
2020/12/21 08:17:29;;;;;;;8.95;3.90;;;;;;;;;;4991391;28;20046;-84
2020/12/21 08:20:02;;;;;;;9.35;3.70;;;;;;;;;;4999545;28;20046;-87
2020/12/21 08:22:45;;;;;;;5.68;2.78;;;;;;;;;;4994134;28;20042;-86
2020/12/21 08:28:49;;;;;;;7.22;2.53;;;;;;;;;;4967267;28;20469;-82
2020/12/21 08:31:19;;;;;;;8.25;2.30;;;;;;;;;;5005981;28;20042;-84
2020/12/21 08:33:56;;;;;;;6.28;2.03;;;;;;;;;;5016908;28;20767;-84
2020/12/21 08:36:43;;;;;;;6.80;2.25;;;;;;;;;;5017038;28;20042;-90
2020/12/21 08:39:18;;;;;;;8.10;1.95;;;;;;;;;;5028864;23;20051;-81
2020/12/21 08:41:47;;;;;;;8.25;2.00;;;;;;;;;;4957728;28;20035;-80
2020/12/21 08:44:22;;;;;;;4.85;2.28;;;;;;;;;;4948620;28;20423;-81
2020/12/21 08:46:59;;;;;;;7.68;2.42;;;;;;;;;;4927718;29;20054;-81
2020/12/21 08:49:41;;;;;;;9.80;2.58;;;;;;;;;;4924112;29;20044;-83
2020/12/21 08:52:10;;;;;;;9.25;2.33;;;;;;;;;;4924513;29;20047;-81
2020/12/21 08:54:51;;;;;;;5.80;2.42;;;;;;;;;;4938997;29;20048;-81
2020/12/21 08:57:24;;;;;;;6.45;2.30;;;;;;;;;;4923490;29;20103;-82
2020/12/21 09:00:10;;;;;;;;;;;;;;;;;;4939582;29;20048;-82
2020/12/21 09:02:50;;;;;;;7.25;1.73;;;;;;;;;;4940496;29;19929;-81
2020/12/21 09:05:30;;;;;;;6.53;1.98;;;;;;;;;;4923556;29;20059;-81
2020/12/21 09:08:05;;;;;;;4.97;2.15;;;;;;;;;;4952791;29;20043;-83
2020/12/21 09:10:52;;;;;;;7.47;2.33;;;;;;;;;;4951247;29;20047;-81
2020/12/21 09:13:35;;;;;;;6.65;1.90;;;;;;;;;;4941247;29;20446;-80
2020/12/21 09:16:25;;;;;;;7.32;2.15;;;;;;;;;;4961063;28;20126;-82
2020/12/21 09:19:01;;;;;;;5.25;1.98;;;;;;;;;;4926930;29;20051;-84
2020/12/21 09:21:37;;;;;;;5.88;1.77;;;;;;;;;;4943555;29;20498;-84
2020/12/21 09:24:09;;;;;;;7.00;1.52;;;;;;;;;;4958316;29;20466;-84
2020/12/21 09:26:52;;;;;;;7.18;1.90;;;;;;;;;;4960805;29;20043;-81
2020/12/21 09:29:33;;;;;;;5.45;1.85;;;;;;;;;;4960633;28;20051;-85
2020/12/21 09:32:16;;;;;;;6.82;1.90;;;;;;;;;;4959648;29;20077;-83
2020/12/21 09:34:53;;;;;;;5.95;2.10;;;;;;;;;;4945048;28;20519;-82
2020/12/21 09:37:30;;;;;;;4.40;1.80;;;;;;;;;;4959607;29;20302;-81
2020/12/21 09:40:20;;;;;;;4.95;2.28;;;;;;;;;;4957514;29;20051;-83
2020/12/21 09:42:59;;;;;;;6.82;2.13;;;;;;;;;;4975188;28;20043;-82
2020/12/21 09:45:33;;;;;;;7.57;2.20;;;;;;;;;;4959172;29;20533;-81
2020/12/21 09:48:10;;;;;;;5.97;2.17;;;;;;;;;;4942326;29;20580;-80
2020/12/21 09:50:45;;;;;;;8.27;1.60;;;;;;;;;;4960511;29;20065;-82
2020/12/21 09:53:22;;;;;;;6.38;1.98;;;;;;;;;;4973746;28;20055;-82
2020/12/21 09:56:03;;;;;;;7.15;1.80;;;;;;;;;;4961600;29;20039;-81
2020/12/21 09:58:33;;;;;;;5.75;1.50;;;;;;;;;;4960989;29;20075;-81
2020/12/21 10:01:08;;;;;;;5.90;1.73;;;;;;;;;;4959272;29;20427;-81
2020/12/21 10:03:39;;;;;;;7.72;1.77;;;;;;;;;;4957958;29;20047;-81
2020/12/21 10:06:11;;;;;;;6.03;1.65;;;;;;;;;;4942926;29;20051;-82
2020/12/21 10:08:47;;;;;;;6.03;2.00;;;;;;;;;;4959336;29;20043;-81
2020/12/21 10:11:19;;;;;;;6.28;1.85;;;;;;;;;;4973167;28;20140;-82
2020/12/21 10:13:48;;;;;;;7.10;1.63;;;;;;;;;;4959455;29;20454;-81
2020/12/21 10:16:30;;;;;;;5.65;2.20;;;;;;;;;;4959343;29;20051;-81
2020/12/21 10:18:59;;;;;;;6.95;1.95;;;;;;;;;;4973998;28;20545;-83
2020/12/21 10:21:36;;;;;;;11.48;2.10;;;;;;;;;;4943048;29;20051;-81
2020/12/21 10:24:06;;;;;;;7.90;1.70;;;;;;;;;;4973155;28;20078;-81
2020/12/21 10:26:41;;;;;;;9.10;1.50;;;;;;;;;;4972310;28;20035;-81
2020/12/21 10:29:13;;;;;;;7.55;1.88;;;;;;;;;;4957107;29;20047;-83
2020/12/21 10:31:52;;;;;;;8.68;2.00;;;;;;;;;;4960865;29;20050;-82
2020/12/21 10:34:22;;;;;;;9.73;1.52;;;;;;;;;;4958539;28;20047;-82
2020/12/21 10:36:59;;;;;;;7.68;2.13;;;;;;;;;;4958739;29;20101;-82
2020/12/21 10:39:48;;;;;;;8.70;2.10;;;;;;;;;;4972816;28;20054;-82
2020/12/21 10:42:28;;;;;;;6.53;1.80;;;;;;;;;;4959348;29;20059;-82
2020/12/21 10:45:03;;;;;;;11.43;2.17;;;;;;;;;;4958284;29;20081;-81
2020/12/21 10:47:47;;;;;;;14.68;1.98;;;;;;;;;;4955833;28;20055;-82
2020/12/21 10:50:20;;;;;;;6.93;1.80;;;;;;;;;;4976531;28;20569;-82
2020/12/21 10:52:50;;;;;;;4.72;1.73;;;;;;;;;;4960685;29;20055;-81
2020/12/21 10:55:29;;;;;;;7.30;1.83;;;;;;;;;;4959432;28;20338;-81
2020/12/21 10:58:03;;;;;;;12.00;2.10;;;;;;;;;;4973620;28;20135;-79
2020/12/21 11:00:34;;;;;;;7.50;2.38;;;;;;;;;;4974432;28;20091;-82
2020/12/21 11:03:05;;;;;;;7.85;1.90;;;;;;;;;;4960996;29;20074;-81
2020/12/21 11:05:42;;;;;;;11.15;1.90;;;;;;;;;;4958250;29;20048;-81
2020/12/21 11:08:24;;;;;;;9.48;2.00;;;;;;;;;;4959195;29;20094;-82
2020/12/21 11:11:03;;;;;;;12.40;2.13;;;;;;;;;;4974871;28;20051;-83
2020/12/21 11:13:42;;;;;;;8.70;2.08;;;;;;;;;;4963344;29;20574;-81
2020/12/21 11:16:21;;;;;;;8.07;1.90;;;;;;;;;;4963750;29;20072;-79
2020/12/21 11:18:55;;;;;;;5.28;1.85;;;;;;;;;;4964008;29;20059;-82
2020/12/21 11:21:43;;;;;;;9.02;2.20;;;;;;;;;;4973314;28;20055;-80
2020/12/21 11:24:20;;;;;;;;;;;;;;;;;;4975489;28;20062;-81
2020/12/21 11:26:56;;;;;;;11.23;2.70;;;;;;;;;;4974492;28;19933;-82
2020/12/21 11:29:32;;;;;;;9.00;2.20;;;;;;;;;;4958332;29;20061;-81
2020/12/21 11:32:25;;;;;;;8.57;2.10;;;;;;;;;;4959455;29;20039;-82
2020/12/21 11:34:58;;;;;;;10.98;2.67;;;;;;;;;;4973876;28;20454;-83
2020/12/21 11:37:41;;;;;;;7.15;2.35;;;;;;;;;;4943649;29;20047;-83
2020/12/21 11:40:34;;;;;;;13.60;2.55;;;;;;;;;;4960926;29;20528;-83
2020/12/21 11:43:04;;;;;;;9.10;2.15;;;;;;;;;;4976811;28;20094;-82
2020/12/21 11:45:39;;;;;;;11.68;2.03;;;;;;;;;;4961099;28;20054;-78
2020/12/21 11:48:37;;;;;;;10.98;1.98;;;;;;;;;;4976308;28;20046;-82
2020/12/21 11:51:32;;;;;;;7.93;1.95;;;;;;;;;;4944707;29;20039;-84
2020/12/21 11:54:12;;;;;;;6.43;1.77;;;;;;;;;;4930103;29;20055;-83
2020/12/21 11:57:04;;;;;;;8.70;1.77;;;;;;;;;;4976588;28;20047;-81
2020/12/21 11:59:43;;;;;;;8.07;1.80;;;;;;;;;;4930440;29;20048;-83
2020/12/21 12:02:17;;;;;;;5.63;1.52;;;;;;;;;;4926285;29;20048;-82
2020/12/21 12:04:59;;;;;;;6.07;1.65;;;;;;;;;;4918049;29;20040;-78
2020/12/21 12:07:39;;;;;;;8.55;1.80;;;;;;;;;;4944055;29;20044;-79
2020/12/21 12:10:13;;;;;;;7.75;1.63;;;;;;;;;;4917251;29;20098;-79
2020/12/21 12:13:14;;;;;;;8.57;2.25;;;;;;;;;;4936475;29;20056;-78
2020/12/21 12:15:44;;;;;;;5.93;1.48;;;;;;;;;;4946996;29;20112;-77
2020/12/21 12:18:18;;;;;;;5.38;1.67;;;;;;;;;;4933992;29;20116;-79
2020/12/21 12:20:55;;;;;;;7.03;1.55;;;;;;;;;;4949686;29;20245;-81
2020/12/21 12:23:35;;;;;;;9.77;1.70;;;;;;;;;;4937545;29;20048;-82
2020/12/21 12:26:10;;;;;;;5.55;1.88;;;;;;;;;;4923964;29;20058;-82
2020/12/21 12:28:45;;;;;;;9.18;1.58;;;;;;;;;;4925033;29;20044;-81
2020/12/21 12:31:45;;;;;;;11.27;1.70;;;;;;;;;;5002938;23;20051;-78
2020/12/21 12:34:45;;;;;;;8.40;1.67;;;;;;;;;;4954600;28;20043;-79
2020/12/21 12:41:35;;;;;;;6.70;1.58;;;;;;;;;;4949558;28;20046;-78
2020/12/21 12:44:37;;;;;;;8.68;2.00;;;;;;;;;;4991066;28;20410;-81
2020/12/21 12:47:15;;;;;;;6.43;1.65;;;;;;;;;;4974952;28;20407;-79
2020/12/21 12:58:21;;;;;;;4.82;1.60;;;;;;;;;;4961385;28;20336;-77
2020/12/21 13:01:47;;;;;;;10.13;1.98;;;;;;;;;;4978220;28;20054;-78
2020/12/21 13:04:23;;;;;;;7.40;1.60;;;;;;;;;;4989471;28;20039;-78
2020/12/21 13:06:56;;;;;;;5.10;1.83;;;;;;;;;;4972265;28;20047;-78
2020/12/21 13:09:52;;;;;;;8.77;2.08;;;;;;;;;;4961984;28;20055;-78
2020/12/21 13:15:56;;;;;;;14.38;4.03;;;;;;;;;;4915952;29;20131;-78
2020/12/21 13:18:52;;;;;;;8.80;3.00;;;;;;;;;;4915160;29;20039;-76
2020/12/21 13:21:47;;;;;;;5.93;1.60;;;;;;;;;;4927291;29;20067;-77
2020/12/21 13:24:37;;;;;;;4.57;1.10;;;;;;;;;;4930962;29;20071;-76
2020/12/21 13:28:00;;;;;;;;;;;;;;;;;;;;;
2020/12/21 13:30:37;;;;;;;4.45;1.00;;;;;;;;;;4927843;29;20170;-77
2020/12/21 13:33:38;;;;;;;4.30;1.02;;;;;;;;;;4928508;29;20048;-78
2020/12/21 13:36:30;;;;;;;2.60;0.90;;;;;;;;;;4899722;29;20151;-79
2020/12/21 13:39:11;;;;;;;5.03;1.10;;;;;;;;;;4924908;29;20048;-76
2020/12/21 13:42:05;;;;;;;3.13;0.77;;;;;;;;;;4920877;29;20716;-76
2020/12/21 13:45:16;;;;;;;2.47;1.00;;;;;;;;;;4910065;29;20047;-77
2020/12/21 13:48:13;;;;;;;4.97;1.02;;;;;;;;;;4916752;29;20118;-78
2020/12/21 13:51:54;;;;;;;3.05;0.80;;;;;;;;;;4858952;29;20147;-78
2020/12/21 13:54:51;;;;;;;3.23;0.70;;;;;;;;;;4869578;29;20092;-76
2020/12/21 13:58:19;;;;;;;4.05;1.02;;;;;;;;;;4899778;29;20316;-77
2020/12/21 14:01:17;;;;;;;1.52;0.70;;;;;;;;;;4895318;29;20075;-79
2020/12/21 14:04:24;;;;;;;2.92;0.90;;;;;;;;;;4885034;29;20047;-79
2020/12/21 14:07:30;;;;;;;;;;;;;;;;;;4881890;29;20048;-78
2020/12/21 14:10:29;;;;;;;4.65;0.90;;;;;;;;;;4879985;29;19923;-78
2020/12/21 14:13:38;;;;;;;3.47;0.98;;;;;;;;;;4865926;29;20562;-77
2020/12/21 14:16:55;;;;;;;3.72;1.42;;;;;;;;;;4880322;29;20071;-77
2020/12/21 14:19:58;;;;;;;1.95;0.82;;;;;;;;;;4898182;29;20458;-77
2020/12/21 14:23:12;;;;;;;3.08;1.10;;;;;;;;;;4885372;29;20501;-77
2020/12/21 14:26:51;;;;;;;3.90;0.88;;;;;;;;;;4852927;29;20498;-79
2020/12/21 14:29:30;;;;;;;6.22;1.13;;;;;;;;;;4921995;29;20142;-77
2020/12/21 14:32:06;;;;;;;3.45;0.90;;;;;;;;;;4925206;29;20076;-78
2020/12/21 14:35:09;;;;;;;3.92;1.38;;;;;;;;;;4911391;29;20078;-78
2020/12/21 14:37:57;;;;;;;5.97;1.30;;;;;;;;;;4913361;29;20071;-77
2020/12/21 14:40:37;;;;;;;2.67;1.20;;;;;;;;;;4954681;28;20586;-76
2020/12/21 14:46:46;;;;;;;2.63;1.30;;;;;;;;;;4928386;29;20594;-78
2020/12/21 14:49:58;;;;;;;;;;;;;;;;;;;;;
2020/12/21 14:52:59;;;;;;;2.40;1.23;;;;;;;;;;4928823;29;20139;-78
2020/12/21 14:56:19;;;;;;;;;;;;;;;;;;;;;
2020/12/21 14:59:22;;;;;;;4.28;1.20;;;;;;;;;;4869811;29;20436;-78
2020/12/21 15:02:32;;;;;;;;;;;;;;;;;;;;;
2020/12/21 15:05:53;;;;;;;5.40;1.55;;;;;;;;;;4879263;29;20033;-78
2020/12/21 15:11:38;;;;;;;6.05;1.55;;;;;;;;;;4953338;23;20140;-77
2020/12/21 15:14:22;;;;;;;4.50;1.80;;;;;;;;;;4995777;28;20047;-78
2020/12/21 15:17:31;;;;;;;2.78;1.55;;;;;;;;;;4922543;29;20083;-77
2020/12/21 15:20:28;;;;;;;;;;;;;;;;;;;;;
2020/12/21 15:23:16;;;;;;;4.38;2.08;;;;;;;;;;4890355;29;20052;-79
2020/12/21 15:26:43;;;;;;;7.05;2.50;;;;;;;;;;4868818;29;20099;-79
2020/12/21 15:30:07;;;;;;;4.18;2.15;;;;;;;;;;4840730;29;20068;-77
2020/12/21 15:33:38;;;;;;;;;;;;;;;;;;;;;
2020/12/21 15:36:18;;;;;;;8.02;2.47;;;;;;;;;;4892284;29;20044;-77
2020/12/21 15:39:14;;;;;;;4.30;2.30;;;;;;;;;;4913023;29;20515;-77
2020/12/21 15:45:46;;;;;;;5.72;2.70;;;;;;;;;;4877516;29;20144;-77
2020/12/21 15:48:14;;;;;;;5.93;3.08;;;;;;;;;;4860852;29;20049;-77
2020/12/21 16:20:29;;;;;;;5.80;3.20;;;;;;;;;;4961699;28;20404;-76
2020/12/21 16:23:44;;;;;;;5.85;3.10;;;;;;;;;;4964119;28;20046;-77
2020/12/21 16:26:28;;;;;;;6.72;3.60;;;;;;;;;;4956497;28;20426;-78
2020/12/21 16:35:55;;;;;;;;;;;;;;;;;;;;;
2020/12/21 16:42:30;;;;;;;6.72;4.03;;;;;;;;;;4954310;29;20039;-78
2020/12/21 16:49:02;;;;;;;11.05;3.97;;;;;;;;;;4953430;29;20035;-77
2020/12/21 16:51:42;;;;;;;12.30;6.07;;;;;;;;;;4952230;28;20102;-78
2020/12/21 16:54:16;;;;;;;6.85;3.17;;;;;;;;;;4954481;29;20049;-77
2020/12/21 16:57:04;;;;;;;7.40;3.35;;;;;;;;;;4953332;29;20098;-77
2020/12/21 17:05:53;;;;;;;5.82;2.80;;;;;;;;;;4953842;29;20073;-76
2020/12/21 17:08:53;;;;;;;7.00;3.45;;;;;;;;;;4936791;29;20127;-77
2020/12/21 17:12:15;;;;;;;;;;;;;;;;;;;;;
2020/12/21 17:15:26;;;;;;;11.98;6.50;;;;;;;;;;4856081;29;20053;-78
2020/12/21 17:18:40;;;;;;;8.43;4.55;;;;;;;;;;4836927;29;20050;-78
2020/12/21 17:21:29;;;;;;;10.55;5.05;;;;;;;;;;4334757;29;15054803;-79
2020/12/21 17:24:25;;;;;;;10.45;4.70;;;;;;;;;;4809489;29;20589;-78
2020/12/21 17:32:16;;;;;;;;;;;;;;;;;;;;;
2020/12/21 17:38:51;;;;;;;9.77;4.82;;;;;;;;;;4953468;28;20039;-78
2020/12/21 17:42:20;;;;;;;9.68;4.72;;;;;;;;;;4895958;29;20052;-79
2020/12/21 17:48:50;;;;;;;11.35;5.45;;;;;;;;;;4896383;29;20048;-78
2020/12/21 17:55:36;;;;;;;14.98;5.03;;;;;;;;;;4945265;28;20256;-78
2020/12/21 17:58:37;;;;;;;12.98;5.00;;;;;;;;;;4910501;29;20044;-79
2020/12/21 18:01:27;;;;;;;14.80;5.03;;;;;;;;;;4888412;28;20054;-78